createdAt,value
2022-07-30T00:04:52.709Z,100.00
2022-07-30T00:09:56.553Z,100.00
2022-07-30T00:15:00.274Z,100.00
2022-07-30T00:20:06.301Z,100.00
2022-07-30T00:25:10.573Z,100.00
2022-07-30T00:30:14.823Z,100.00
2022-07-30T00:35:21.122Z,100.00
2022-07-30T00:40:25.057Z,100.00
2022-07-30T00:45:28.916Z,100.00
2022-07-30T00:50:34.190Z,100.00
2022-07-30T00:55:39.169Z,100.00
2022-07-30T01:00:43.240Z,100.00
2022-07-30T01:05:48.673Z,100.00
2022-07-30T01:10:52.408Z,100.00
2022-07-30T01:15:58.102Z,100.00
2022-07-30T01:21:13.345Z,100.00
2022-07-30T01:26:22.195Z,100.00
2022-07-30T01:31:28.369Z,100.00
2022-07-30T01:36:33.652Z,100.00
2022-07-30T01:41:39.672Z,100.00
2022-07-30T01:46:43.734Z,100.00
2022-07-30T01:51:49.894Z,100.00
2022-07-30T01:56:57.683Z,100.00
2022-07-30T02:02:03.156Z,100.00
2022-07-30T02:07:14.839Z,100.00
2022-07-30T02:12:29.457Z,100.00
2022-07-30T02:17:42.935Z,100.00
2022-07-30T02:22:50.084Z,100.00
2022-07-30T02:28:06.136Z,100.00
2022-07-30T02:33:12.746Z,100.00
2022-07-30T02:38:18.803Z,100.00
2022-07-30T02:43:27.539Z,100.00
2022-07-30T02:48:42.079Z,100.00
2022-07-30T02:53:48.549Z,100.00
2022-07-30T02:58:55.325Z,100.00
2022-07-30T03:04:00.010Z,100.00
2022-07-30T03:09:05.419Z,100.00
2022-07-30T03:14:12.163Z,100.00
2022-07-30T03:19:18.331Z,100.00
2022-07-30T03:24:25.554Z,100.00
2022-07-30T03:29:32.455Z,100.00
2022-07-30T03:34:36.817Z,100.00
2022-07-30T03:39:41.699Z,100.00
2022-07-30T03:44:47.562Z,100.00
2022-07-30T03:49:52.363Z,100.00
2022-07-30T03:54:56.352Z,100.00
2022-07-30T04:00:02.704Z,100.00
2022-07-30T04:05:18.077Z,100.00
2022-07-30T04:10:22.747Z,100.00
2022-07-30T04:16:05.995Z,100.00
2022-07-30T04:20:55.739Z,100.00
2022-07-30T04:26:00.657Z,100.00
2022-07-30T04:31:06.647Z,100.00
2022-07-30T04:36:13.895Z,100.00
2022-07-30T04:41:20.153Z,100.00
2022-07-30T04:46:27.349Z,100.00
2022-07-30T04:51:35.179Z,100.00
2022-07-30T04:56:39.452Z,100.00
2022-07-30T05:01:58.388Z,100.00
2022-07-30T05:07:04.321Z,100.00
2022-07-30T05:12:09.139Z,100.00
2022-07-30T05:17:14.243Z,100.00
2022-07-30T05:22:17.954Z,100.00
2022-07-30T05:27:21.747Z,100.00
2022-07-30T05:32:27.195Z,100.00
2022-07-30T05:37:31.234Z,100.00
2022-07-30T05:42:35.132Z,100.00
2022-07-30T05:47:40.264Z,100.00
2022-07-30T05:52:43.997Z,100.00
2022-07-30T05:57:50.216Z,100.00
2022-07-30T06:02:55.839Z,100.00
2022-07-30T06:08:02.539Z,100.00
2022-07-30T06:13:06.825Z,100.00
2022-07-30T06:18:11.970Z,100.00
2022-07-30T06:23:16.823Z,100.00
2022-07-30T06:28:39.006Z,100.00
2022-07-30T06:33:46.561Z,100.00
2022-07-30T06:38:51.253Z,100.00
2022-07-30T06:43:56.709Z,100.00
2022-07-30T06:49:02.794Z,100.00
2022-07-30T06:54:08.452Z,100.00
2022-07-30T06:59:27.592Z,100.00
2022-07-30T07:04:43.399Z,100.00
2022-07-30T07:09:47.406Z,100.00
2022-07-30T07:14:54.314Z,100.00
2022-07-30T07:20:02.326Z,100.00
2022-07-30T07:25:08.664Z,100.00
2022-07-30T07:30:13.513Z,100.00
2022-07-30T07:35:18.837Z,100.00
2022-07-30T07:40:24.786Z,100.00
2022-07-30T07:45:28.946Z,100.00
2022-07-30T07:50:34.790Z,100.00
2022-07-30T07:55:39.608Z,100.00
2022-07-30T08:00:43.569Z,100.00
2022-07-30T08:06:01.779Z,100.00
2022-07-30T08:11:16.017Z,100.00
2022-07-30T08:16:23.108Z,100.00
2022-07-30T08:21:30.827Z,100.00
2022-07-30T08:26:34.589Z,100.00
2022-07-30T08:31:38.372Z,100.00
2022-07-30T08:36:43.693Z,100.00
2022-07-30T08:41:47.944Z,100.00
2022-07-30T08:46:53.378Z,100.00
2022-07-30T08:51:59.179Z,100.00
2022-07-30T08:57:06.308Z,100.00
2022-07-30T09:02:13.041Z,100.00
2022-07-30T09:07:20.201Z,100.00
2022-07-30T09:12:38.984Z,100.00
2022-07-30T09:17:48.418Z,100.00
2022-07-30T09:22:55.616Z,100.00
2022-07-30T09:28:02.307Z,100.00
2022-07-30T09:33:40.597Z,100.00
2022-07-30T09:38:51.612Z,100.00
2022-07-30T09:43:59.828Z,100.00
2022-07-30T09:49:15.775Z,100.00
2022-07-30T09:54:21.327Z,100.00
2022-07-30T09:59:35.261Z,100.00
2022-07-30T10:04:41.016Z,100.00
2022-07-30T10:09:49.147Z,100.00
2022-07-30T10:14:55.129Z,95.89
2022-07-30T10:19:59.836Z,82.85
2022-07-30T10:25:23.053Z,82.84
2022-07-30T10:30:35.293Z,73.73
2022-07-30T10:35:39.540Z,62.64
2022-07-30T10:40:51.807Z,55.68
2022-07-30T10:46:04.494Z,57.10
2022-07-30T10:51:09.360Z,55.80
2022-07-30T10:56:25.763Z,56.43
2022-07-30T11:02:03.798Z,55.03
2022-07-30T11:07:29.332Z,53.66
2022-07-30T11:12:55.574Z,55.17
2022-07-30T11:18:12.043Z,53.54
2022-07-30T11:23:37.673Z,54.30
2022-07-30T11:28:49.615Z,51.04
2022-07-30T11:33:53.583Z,54.53
2022-07-30T11:39:06.933Z,54.46
2022-07-30T11:44:29.977Z,53.58
2022-07-30T11:49:36.733Z,56.20
2022-07-30T11:54:52.872Z,56.14
2022-07-30T11:59:58.487Z,56.45
2022-07-30T12:05:02.207Z,56.81
2022-07-30T12:10:16.717Z,57.39
2022-07-30T12:15:33.990Z,58.28
2022-07-30T12:20:38.005Z,58.30
2022-07-30T12:25:47.871Z,57.64
2022-07-30T12:30:57.450Z,58.70
2022-07-30T12:36:02.047Z,57.90
2022-07-30T12:41:06.894Z,57.06
2022-07-30T12:46:15.040Z,57.44
2022-07-30T12:51:19.772Z,53.51
2022-07-30T12:56:27.152Z,53.42
2022-07-30T13:01:47.011Z,52.09
2022-07-30T13:07:08.015Z,52.38
2022-07-30T13:12:13.362Z,52.00
2022-07-30T13:17:19.571Z,48.33
2022-07-30T13:22:23.324Z,50.81
2022-07-30T13:27:27.027Z,51.47
2022-07-30T13:32:32.906Z,50.59
2022-07-30T13:37:38.386Z,50.82
2022-07-30T13:42:42.503Z,49.91
2022-07-30T13:47:48.442Z,50.05
2022-07-30T13:52:52.310Z,51.20
2022-07-30T13:57:56.054Z,50.39
2022-07-30T14:03:02.135Z,50.76
2022-07-30T14:08:07.772Z,50.70
2022-07-30T14:13:19.097Z,51.62
2022-07-30T14:18:26.324Z,51.37
2022-07-30T14:23:31.089Z,50.50
2022-07-30T14:28:34.922Z,50.34
2022-07-30T14:33:40.083Z,50.05
2022-07-30T14:38:44.365Z,50.56
2022-07-30T14:43:48.094Z,49.65
2022-07-30T14:48:53.208Z,48.84
2022-07-30T14:53:59.063Z,48.55
2022-07-30T14:59:02.910Z,48.80
2022-07-30T15:04:09.537Z,49.30
2022-07-30T15:09:13.296Z,49.82
2022-07-30T15:14:17.246Z,50.25
2022-07-30T15:19:26.796Z,50.29
2022-07-30T15:24:30.551Z,50.41
2022-07-30T15:29:34.421Z,50.53
2022-07-30T15:34:39.520Z,52.68
2022-07-30T15:39:43.286Z,53.12
2022-07-30T15:44:48.987Z,52.14
2022-07-30T15:49:54.362Z,53.36
2022-07-30T15:54:58.168Z,52.82
2022-07-30T16:00:01.881Z,53.68
2022-07-30T16:05:16.608Z,54.74
2022-07-30T16:10:20.303Z,54.74
2022-07-30T16:15:25.640Z,53.90
2022-07-30T16:20:30.726Z,54.77
2022-07-30T16:25:34.566Z,56.69
2022-07-30T16:30:50.976Z,57.45
2022-07-30T16:35:56.795Z,58.59
2022-07-30T16:41:00.571Z,59.42
2022-07-30T16:46:04.380Z,59.26
2022-07-30T16:51:09.456Z,58.51
2022-07-30T16:56:14.126Z,59.20
2022-07-30T17:01:17.941Z,58.72
2022-07-30T17:06:23.164Z,60.53
2022-07-30T17:11:46.752Z,60.82
2022-07-30T17:16:51.425Z,60.75
2022-07-30T17:21:56.514Z,60.86
2022-07-30T17:27:00.248Z,62.19
2022-07-30T17:32:04.456Z,62.59
2022-07-30T17:37:09.894Z,63.76
2022-07-30T17:42:13.972Z,64.89
2022-07-30T17:47:17.956Z,65.38
2022-07-30T17:52:26.718Z,66.04
2022-07-30T17:57:30.941Z,64.68
2022-07-30T18:02:34.686Z,67.18
2022-07-30T18:07:39.806Z,67.87
2022-07-30T18:12:49.040Z,68.46
2022-07-30T18:17:53.463Z,69.60
2022-07-30T18:22:58.511Z,70.40
2022-07-30T18:28:03.798Z,71.75
2022-07-30T18:33:07.567Z,71.69
2022-07-30T18:38:14.312Z,71.81
2022-07-30T18:43:19.000Z,73.13
2022-07-30T18:48:23.298Z,73.35
2022-07-30T18:53:28.463Z,73.23
2022-07-30T18:58:32.631Z,74.09
2022-07-30T19:03:36.432Z,75.38
2022-07-30T19:08:41.497Z,75.46
2022-07-30T19:13:45.231Z,76.00
2022-07-30T19:18:48.998Z,76.77
2022-07-30T19:23:54.141Z,77.63
2022-07-30T19:28:58.803Z,80.14
2022-07-30T19:34:02.879Z,79.44
2022-07-30T19:39:11.040Z,80.71
2022-07-30T19:44:19.931Z,81.30
2022-07-30T19:49:23.712Z,80.95
2022-07-30T19:54:34.879Z,81.28
2022-07-30T19:59:57.868Z,81.03
2022-07-30T20:05:05.959Z,81.26
2022-07-30T20:10:12.631Z,81.05
2022-07-30T20:15:16.460Z,81.58
2022-07-30T20:20:26.498Z,81.44
2022-07-30T20:25:37.398Z,81.11
2022-07-30T20:30:41.333Z,81.56
2022-07-30T20:35:45.349Z,82.20
2022-07-30T20:40:52.771Z,82.29
2022-07-30T20:45:56.652Z,84.28
2022-07-30T20:51:00.529Z,85.41
2022-07-30T20:56:06.226Z,86.19
2022-07-30T21:01:17.713Z,86.07
2022-07-30T21:06:22.620Z,87.15
2022-07-30T21:11:32.013Z,87.08
2022-07-30T21:16:41.417Z,88.19
2022-07-30T21:21:48.714Z,89.07
2022-07-30T21:26:53.931Z,90.04
2022-07-30T21:32:02.664Z,92.67
2022-07-30T21:37:07.347Z,92.61
2022-07-30T21:42:12.764Z,94.72
2022-07-30T21:47:16.557Z,97.29
2022-07-30T21:52:20.265Z,100.00
2022-07-30T21:57:26.706Z,100.00
2022-07-30T22:02:34.025Z,100.00
2022-07-30T22:07:38.280Z,100.00
2022-07-30T22:12:43.716Z,100.00
2022-07-30T22:17:58.463Z,100.00
2022-07-30T22:23:11.307Z,100.00
2022-07-30T22:28:16.799Z,100.00
2022-07-30T22:33:20.905Z,100.00
2022-07-30T22:38:24.798Z,100.00
2022-07-30T22:43:35.609Z,100.00
2022-07-30T22:48:44.949Z,100.00
2022-07-30T22:54:11.403Z,100.00
2022-07-30T22:59:14.095Z,100.00
2022-07-30T23:04:18.852Z,100.00
2022-07-30T23:09:22.783Z,100.00
2022-07-30T23:14:28.768Z,100.00
2022-07-30T23:19:32.876Z,100.00
2022-07-30T23:24:36.682Z,100.00
2022-07-30T23:29:41.753Z,100.00
2022-07-30T23:34:45.440Z,100.00
2022-07-30T23:39:49.295Z,100.00
2022-07-30T23:44:54.400Z,100.00
2022-07-30T23:49:58.252Z,100.00
2022-07-30T23:55:02.006Z,100.00
